sensor_id;sensor_type;location;lat;lon;timestamp;pressure;altitude;pressure_sealevel;temperature;humidity
77235;BME280;66253;50.526;14.974;2023-09-18T00:00:24;99025.74;;;16.89;70.99
77235;BME280;66253;50.526;14.974;2023-09-18T00:02:53;99019.61;;;16.88;70.95
77235;BME280;66253;50.526;14.974;2023-09-18T00:05:21;99019.08;;;16.88;71.08
77235;BME280;66253;50.526;14.974;2023-09-18T00:07:49;99019.61;;;16.89;71.15
77235;BME280;66253;50.526;14.974;2023-09-18T00:10:18;99021.98;;;16.87;71.14
77235;BME280;66253;50.526;14.974;2023-09-18T00:12:46;99020.55;;;16.85;71.05
77235;BME280;66253;50.526;14.974;2023-09-18T00:15:14;99016.07;;;16.83;71.13
77235;BME280;66253;50.526;14.974;2023-09-18T00:17:42;99018.66;;;16.81;71.12
77235;BME280;66253;50.526;14.974;2023-09-18T00:20:12;99014.20;;;16.81;70.92
77235;BME280;66253;50.526;14.974;2023-09-18T00:22:40;99009.79;;;16.80;71.08
77235;BME280;66253;50.526;14.974;2023-09-18T00:25:09;99005.65;;;16.78;71.19
77235;BME280;66253;50.526;14.974;2023-09-18T00:27:37;99005.55;;;16.77;71.09
77235;BME280;66253;50.526;14.974;2023-09-18T00:30:07;99003.52;;;16.75;71.13
77235;BME280;66253;50.526;14.974;2023-09-18T00:32:35;98997.59;;;16.73;71.31
77235;BME280;66253;50.526;14.974;2023-09-18T00:35:04;98996.58;;;16.71;71.32
77235;BME280;66253;50.526;14.974;2023-09-18T00:37:33;98995.59;;;16.71;71.29
77235;BME280;66253;50.526;14.974;2023-09-18T00:40:02;98998.70;;;16.71;71.35
77235;BME280;66253;50.526;14.974;2023-09-18T00:42:32;98997.83;;;16.71;71.58
77235;BME280;66253;50.526;14.974;2023-09-18T00:45:00;98996.34;;;16.70;71.49
77235;BME280;66253;50.526;14.974;2023-09-18T00:47:31;98995.52;;;16.69;71.38
77235;BME280;66253;50.526;14.974;2023-09-18T00:50:00;98995.48;;;16.70;71.62
77235;BME280;66253;50.526;14.974;2023-09-18T00:52:28;98995.94;;;16.68;71.53
77235;BME280;66253;50.526;14.974;2023-09-18T00:54:57;98994.30;;;16.67;71.65
77235;BME280;66253;50.526;14.974;2023-09-18T00:57:25;98993.08;;;16.65;71.65
77235;BME280;66253;50.526;14.974;2023-09-18T00:59:53;98991.05;;;16.65;71.50
77235;BME280;66253;50.526;14.974;2023-09-18T01:02:22;98989.57;;;16.64;71.56
77235;BME280;66253;50.526;14.974;2023-09-18T01:04:50;98987.48;;;16.62;71.84
77235;BME280;66253;50.526;14.974;2023-09-18T01:07:19;98984.46;;;16.61;71.71
77235;BME280;66253;50.526;14.974;2023-09-18T01:09:48;98983.79;;;16.59;71.83
77235;BME280;66253;50.526;14.974;2023-09-18T01:12:20;98984.15;;;16.57;71.86
77235;BME280;66253;50.526;14.974;2023-09-18T01:15:03;98983.23;;;16.53;72.05
77235;BME280;66253;50.526;14.974;2023-09-18T01:17:36;98983.03;;;16.52;72.06
77235;BME280;66253;50.526;14.974;2023-09-18T01:20:08;98979.44;;;16.51;72.10
77235;BME280;66253;50.526;14.974;2023-09-18T01:22:37;98975.68;;;16.51;72.16
77235;BME280;66253;50.526;14.974;2023-09-18T01:25:07;98975.02;;;16.50;72.29
77235;BME280;66253;50.526;14.974;2023-09-18T01:27:33;98975.80;;;16.50;72.25
77235;BME280;66253;50.526;14.974;2023-09-18T01:30:02;98973.45;;;16.49;72.37
77235;BME280;66253;50.526;14.974;2023-09-18T01:32:32;98976.23;;;16.47;72.51
77235;BME280;66253;50.526;14.974;2023-09-18T01:35:04;98972.26;;;16.44;72.46
77235;BME280;66253;50.526;14.974;2023-09-18T01:37:34;98970.77;;;16.42;72.44
77235;BME280;66253;50.526;14.974;2023-09-18T01:40:03;98966.61;;;16.40;72.62
77235;BME280;66253;50.526;14.974;2023-09-18T01:42:33;98962.91;;;16.39;72.49
77235;BME280;66253;50.526;14.974;2023-09-18T01:45:02;98960.70;;;16.36;72.15
77235;BME280;66253;50.526;14.974;2023-09-18T01:47:32;98957.95;;;16.34;72.29
77235;BME280;66253;50.526;14.974;2023-09-18T01:50:04;98964.02;;;16.32;72.18
77235;BME280;66253;50.526;14.974;2023-09-18T01:52:32;98966.88;;;16.31;72.23
77235;BME280;66253;50.526;14.974;2023-09-18T01:55:01;98962.40;;;16.28;72.29
77235;BME280;66253;50.526;14.974;2023-09-18T01:57:29;98955.20;;;16.26;72.11
77235;BME280;66253;50.526;14.974;2023-09-18T01:59:57;98952.75;;;16.24;72.21
77235;BME280;66253;50.526;14.974;2023-09-18T02:02:25;98953.09;;;16.22;72.29
77235;BME280;66253;50.526;14.974;2023-09-18T02:04:53;98950.63;;;16.18;72.19
77235;BME280;66253;50.526;14.974;2023-09-18T02:07:22;98941.75;;;16.16;72.26
77235;BME280;66253;50.526;14.974;2023-09-18T02:09:50;98939.02;;;16.13;72.35
77235;BME280;66253;50.526;14.974;2023-09-18T02:12:18;98939.23;;;16.11;72.30
77235;BME280;66253;50.526;14.974;2023-09-18T02:14:47;98934.89;;;16.07;72.45
77235;BME280;66253;50.526;14.974;2023-09-18T02:17:15;98932.63;;;16.03;72.37
77235;BME280;66253;50.526;14.974;2023-09-18T02:19:43;98927.39;;;16.00;72.51
77235;BME280;66253;50.526;14.974;2023-09-18T02:22:11;98926.42;;;15.97;72.69
77235;BME280;66253;50.526;14.974;2023-09-18T02:24:39;98922.26;;;15.95;72.58
77235;BME280;66253;50.526;14.974;2023-09-18T02:27:08;98921.23;;;15.95;72.48
77235;BME280;66253;50.526;14.974;2023-09-18T02:29:36;98918.27;;;15.96;72.65
77235;BME280;66253;50.526;14.974;2023-09-18T02:32:05;98919.39;;;15.94;72.63
77235;BME280;66253;50.526;14.974;2023-09-18T02:34:33;98915.21;;;15.95;72.62
77235;BME280;66253;50.526;14.974;2023-09-18T02:37:01;98910.48;;;15.96;72.50
77235;BME280;66253;50.526;14.974;2023-09-18T02:39:29;98901.48;;;15.96;72.77
77235;BME280;66253;50.526;14.974;2023-09-18T02:41:58;98902.65;;;15.97;72.86
77235;BME280;66253;50.526;14.974;2023-09-18T02:44:26;98901.00;;;15.96;72.95
77235;BME280;66253;50.526;14.974;2023-09-18T02:46:54;98900.96;;;15.94;72.93
77235;BME280;66253;50.526;14.974;2023-09-18T02:49:22;98898.73;;;15.94;73.09
77235;BME280;66253;50.526;14.974;2023-09-18T02:51:50;98898.85;;;15.93;73.00
77235;BME280;66253;50.526;14.974;2023-09-18T02:54:19;98900.66;;;15.92;73.15
77235;BME280;66253;50.526;14.974;2023-09-18T02:56:47;98893.54;;;15.91;73.25
77235;BME280;66253;50.526;14.974;2023-09-18T02:59:15;98888.48;;;15.89;73.23
77235;BME280;66253;50.526;14.974;2023-09-18T03:01:43;98887.11;;;15.89;73.20
77235;BME280;66253;50.526;14.974;2023-09-18T03:04:12;98884.77;;;15.88;73.21
77235;BME280;66253;50.526;14.974;2023-09-18T03:06:40;98888.03;;;15.86;73.27
77235;BME280;66253;50.526;14.974;2023-09-18T03:09:09;98882.55;;;15.86;73.28
77235;BME280;66253;50.526;14.974;2023-09-18T03:11:37;98882.65;;;15.85;73.12
77235;BME280;66253;50.526;14.974;2023-09-18T03:14:05;98879.58;;;15.85;73.07
77235;BME280;66253;50.526;14.974;2023-09-18T03:16:33;98873.77;;;15.84;73.09
77235;BME280;66253;50.526;14.974;2023-09-18T03:19:02;98871.27;;;15.83;73.22
77235;BME280;66253;50.526;14.974;2023-09-18T03:21:30;98875.70;;;15.81;73.22
77235;BME280;66253;50.526;14.974;2023-09-18T03:23:59;98875.65;;;15.80;73.05
77235;BME280;66253;50.526;14.974;2023-09-18T03:26:27;98872.80;;;15.81;73.30
77235;BME280;66253;50.526;14.974;2023-09-18T03:28:55;98863.34;;;15.81;73.42
77235;BME280;66253;50.526;14.974;2023-09-18T03:31:23;98861.79;;;15.79;73.30
77235;BME280;66253;50.526;14.974;2023-09-18T03:33:51;98865.22;;;15.77;73.35
77235;BME280;66253;50.526;14.974;2023-09-18T03:36:22;98866.80;;;15.74;73.74
77235;BME280;66253;50.526;14.974;2023-09-18T03:38:50;98863.81;;;15.69;73.55
77235;BME280;66253;50.526;14.974;2023-09-18T03:41:18;98860.27;;;15.68;73.82
77235;BME280;66253;50.526;14.974;2023-09-18T03:43:47;98856.22;;;15.67;74.02
77235;BME280;66253;50.526;14.974;2023-09-18T03:46:15;98850.05;;;15.67;74.10
77235;BME280;66253;50.526;14.974;2023-09-18T03:48:43;98847.92;;;15.65;74.15
77235;BME280;66253;50.526;14.974;2023-09-18T03:51:11;98845.59;;;15.62;74.17
77235;BME280;66253;50.526;14.974;2023-09-18T03:53:39;98843.72;;;15.60;73.93
77235;BME280;66253;50.526;14.974;2023-09-18T03:56:08;98837.39;;;15.57;74.31
77235;BME280;66253;50.526;14.974;2023-09-18T03:58:36;98833.55;;;15.54;74.22
77235;BME280;66253;50.526;14.974;2023-09-18T04:01:04;98830.83;;;15.51;74.36
77235;BME280;66253;50.526;14.974;2023-09-18T04:03:32;98830.66;;;15.49;74.53
77235;BME280;66253;50.526;14.974;2023-09-18T04:06:01;98825.73;;;15.48;74.32
77235;BME280;66253;50.526;14.974;2023-09-18T04:08:29;98823.63;;;15.48;74.51
77235;BME280;66253;50.526;14.974;2023-09-18T04:10:57;98824.75;;;15.48;74.56
77235;BME280;66253;50.526;14.974;2023-09-18T04:13:26;98820.29;;;15.47;74.64
77235;BME280;66253;50.526;14.974;2023-09-18T04:15:54;98820.95;;;15.48;74.62
77235;BME280;66253;50.526;14.974;2023-09-18T04:18:23;98818.30;;;15.48;74.70
77235;BME280;66253;50.526;14.974;2023-09-18T04:20:51;98813.25;;;15.49;74.71
77235;BME280;66253;50.526;14.974;2023-09-18T04:23:21;98808.73;;;15.47;74.97
77235;BME280;66253;50.526;14.974;2023-09-18T04:25:50;98807.24;;;15.47;74.82
77235;BME280;66253;50.526;14.974;2023-09-18T04:28:20;98802.66;;;15.46;74.83
77235;BME280;66253;50.526;14.974;2023-09-18T04:30:46;98801.71;;;15.45;74.84
77235;BME280;66253;50.526;14.974;2023-09-18T04:33:16;98800.02;;;15.47;75.04
77235;BME280;66253;50.526;14.974;2023-09-18T04:35:44;98798.73;;;15.46;75.10
77235;BME280;66253;50.526;14.974;2023-09-18T04:38:12;98796.84;;;15.44;75.15
77235;BME280;66253;50.526;14.974;2023-09-18T04:40:41;98796.63;;;15.44;75.25
77235;BME280;66253;50.526;14.974;2023-09-18T04:43:09;98797.32;;;15.46;75.33
77235;BME280;66253;50.526;14.974;2023-09-18T04:45:37;98797.04;;;15.45;75.46
77235;BME280;66253;50.526;14.974;2023-09-18T04:48:06;98794.95;;;15.46;75.45
77235;BME280;66253;50.526;14.974;2023-09-18T04:50:34;98793.95;;;15.47;75.57
77235;BME280;66253;50.526;14.974;2023-09-18T04:53:03;98792.07;;;15.49;75.56
77235;BME280;66253;50.526;14.974;2023-09-18T04:55:31;98788.81;;;15.51;75.75
77235;BME280;66253;50.526;14.974;2023-09-18T04:57:59;98793.31;;;15.53;75.74
77235;BME280;66253;50.526;14.974;2023-09-18T05:00:28;98790.67;;;15.54;75.76
77235;BME280;66253;50.526;14.974;2023-09-18T05:02:57;98793.34;;;15.57;75.76
77235;BME280;66253;50.526;14.974;2023-09-18T05:05:25;98793.06;;;15.60;75.92
77235;BME280;66253;50.526;14.974;2023-09-18T05:07:54;98796.31;;;15.65;76.00
77235;BME280;66253;50.526;14.974;2023-09-18T05:10:22;98791.64;;;15.83;76.07
77235;BME280;66253;50.526;14.974;2023-09-18T05:12:50;98789.88;;;16.15;75.69
77235;BME280;66253;50.526;14.974;2023-09-18T05:15:18;98787.08;;;16.37;75.52
77235;BME280;66253;50.526;14.974;2023-09-18T05:17:48;98781.25;;;16.51;75.20
77235;BME280;66253;50.526;14.974;2023-09-18T05:20:18;98778.52;;;16.60;74.81
77235;BME280;66253;50.526;14.974;2023-09-18T05:22:46;98779.58;;;16.64;74.45
77235;BME280;66253;50.526;14.974;2023-09-18T05:25:14;98780.89;;;16.64;74.36
77235;BME280;66253;50.526;14.974;2023-09-18T05:27:43;98783.00;;;16.66;74.25
77235;BME280;66253;50.526;14.974;2023-09-18T05:30:13;98783.21;;;16.65;74.21
77235;BME280;66253;50.526;14.974;2023-09-18T05:32:42;98786.29;;;16.66;74.21
77235;BME280;66253;50.526;14.974;2023-09-18T05:35:11;98785.39;;;16.68;74.24
77235;BME280;66253;50.526;14.974;2023-09-18T05:37:40;98784.02;;;16.72;74.50
77235;BME280;66253;50.526;14.974;2023-09-18T05:40:10;98773.84;;;16.82;74.31
77235;BME280;66253;50.526;14.974;2023-09-18T05:42:40;98774.83;;;17.14;74.13
77235;BME280;66253;50.526;14.974;2023-09-18T05:45:09;98773.68;;;17.54;73.71
77235;BME280;66253;50.526;14.974;2023-09-18T05:47:39;98773.67;;;18.00;73.00
77235;BME280;66253;50.526;14.974;2023-09-18T05:50:09;98771.16;;;18.44;72.26
77235;BME280;66253;50.526;14.974;2023-09-18T05:52:37;98770.61;;;18.70;71.76
77235;BME280;66253;50.526;14.974;2023-09-18T05:55:07;98759.27;;;18.84;71.17
77235;BME280;66253;50.526;14.974;2023-09-18T05:57:35;98750.46;;;18.87;70.56
77235;BME280;66253;50.526;14.974;2023-09-18T06:00:05;98740.89;;;18.82;70.76
77235;BME280;66253;50.526;14.974;2023-09-18T06:02:34;98740.98;;;18.83;70.67
77235;BME280;66253;50.526;14.974;2023-09-18T06:05:02;98739.37;;;18.82;71.36
77235;BME280;66253;50.526;14.974;2023-09-18T06:07:32;98738.37;;;18.84;71.72
77235;BME280;66253;50.526;14.974;2023-09-18T06:10:00;98736.55;;;18.91;72.11
77235;BME280;66253;50.526;14.974;2023-09-18T06:12:29;98735.33;;;19.06;72.31
77235;BME280;66253;50.526;14.974;2023-09-18T06:14:57;98733.99;;;19.21;72.06
77235;BME280;66253;50.526;14.974;2023-09-18T06:17:25;98739.69;;;19.35;71.64
77235;BME280;66253;50.526;14.974;2023-09-18T06:19:54;98742.16;;;19.46;71.27
77235;BME280;66253;50.526;14.974;2023-09-18T06:22:22;98744.98;;;19.55;70.91
77235;BME280;66253;50.526;14.974;2023-09-18T06:24:50;98748.28;;;19.61;70.95
77235;BME280;66253;50.526;14.974;2023-09-18T06:27:18;98747.14;;;19.68;71.33
77235;BME280;66253;50.526;14.974;2023-09-18T06:29:47;98745.26;;;19.74;71.27
77235;BME280;66253;50.526;14.974;2023-09-18T06:32:15;98742.14;;;19.83;71.28
77235;BME280;66253;50.526;14.974;2023-09-18T06:34:43;98739.32;;;19.90;71.21
77235;BME280;66253;50.526;14.974;2023-09-18T06:37:11;98734.69;;;19.98;71.26
77235;BME280;66253;50.526;14.974;2023-09-18T06:39:39;98730.77;;;20.08;70.98
77235;BME280;66253;50.526;14.974;2023-09-18T06:42:08;98732.52;;;20.18;70.81
77235;BME280;66253;50.526;14.974;2023-09-18T06:44:37;98719.59;;;20.27;71.06
77235;BME280;66253;50.526;14.974;2023-09-18T06:47:05;98710.60;;;20.36;71.09
77235;BME280;66253;50.526;14.974;2023-09-18T06:49:34;98706.23;;;20.48;71.09
77235;BME280;66253;50.526;14.974;2023-09-18T06:52:02;98700.41;;;20.63;70.65
77235;BME280;66253;50.526;14.974;2023-09-18T06:54:30;98700.53;;;20.78;70.53
77235;BME280;66253;50.526;14.974;2023-09-18T06:56:59;98694.40;;;20.95;70.27
77235;BME280;66253;50.526;14.974;2023-09-18T06:59:27;98694.95;;;21.09;69.92
77235;BME280;66253;50.526;14.974;2023-09-18T07:01:55;98689.15;;;21.21;69.52
77235;BME280;66253;50.526;14.974;2023-09-18T07:04:23;98681.77;;;21.33;69.08
77235;BME280;66253;50.526;14.974;2023-09-18T07:06:52;98680.70;;;21.43;68.76
77235;BME280;66253;50.526;14.974;2023-09-18T07:09:20;98683.48;;;21.52;68.18
77235;BME280;66253;50.526;14.974;2023-09-18T07:11:48;98686.73;;;21.64;67.76
77235;BME280;66253;50.526;14.974;2023-09-18T07:14:16;98682.08;;;21.74;67.26
77235;BME280;66253;50.526;14.974;2023-09-18T07:16:45;98682.73;;;21.85;67.29
77235;BME280;66253;50.526;14.974;2023-09-18T07:19:13;98689.30;;;21.97;66.83
77235;BME280;66253;50.526;14.974;2023-09-18T07:21:41;98690.52;;;22.12;66.60
77235;BME280;66253;50.526;14.974;2023-09-18T07:24:09;98691.48;;;22.29;66.24
77235;BME280;66253;50.526;14.974;2023-09-18T07:26:38;98688.94;;;22.42;65.12
77235;BME280;66253;50.526;14.974;2023-09-18T07:29:06;98679.95;;;22.54;65.26
77235;BME280;66253;50.526;14.974;2023-09-18T07:31:34;98680.16;;;22.67;64.46
77235;BME280;66253;50.526;14.974;2023-09-18T07:34:02;98680.73;;;22.77;63.84
77235;BME280;66253;50.526;14.974;2023-09-18T07:36:31;98677.15;;;22.87;63.77
77235;BME280;66253;50.526;14.974;2023-09-18T07:38:59;98681.75;;;22.97;62.94
77235;BME280;66253;50.526;14.974;2023-09-18T07:41:27;98672.88;;;23.03;62.28
77235;BME280;66253;50.526;14.974;2023-09-18T07:43:55;98671.17;;;23.07;62.52
77235;BME280;66253;50.526;14.974;2023-09-18T07:46:24;98666.11;;;23.19;63.03
77235;BME280;66253;50.526;14.974;2023-09-18T07:48:52;98667.19;;;23.34;62.95
77235;BME280;66253;50.526;14.974;2023-09-18T07:51:20;98666.33;;;23.45;61.98
77235;BME280;66253;50.526;14.974;2023-09-18T07:53:48;98660.28;;;23.54;61.97
77235;BME280;66253;50.526;14.974;2023-09-18T07:56:17;98660.33;;;23.64;61.73
77235;BME280;66253;50.526;14.974;2023-09-18T07:58:45;98670.18;;;23.72;60.35
77235;BME280;66253;50.526;14.974;2023-09-18T08:01:13;98674.83;;;23.73;59.91
77235;BME280;66253;50.526;14.974;2023-09-18T08:03:41;98676.96;;;23.77;60.00
77235;BME280;66253;50.526;14.974;2023-09-18T08:06:10;98681.23;;;23.80;59.63
77235;BME280;66253;50.526;14.974;2023-09-18T08:08:38;98677.43;;;23.83;59.50
77235;BME280;66253;50.526;14.974;2023-09-18T08:11:09;98666.29;;;23.84;59.62
77235;BME280;66253;50.526;14.974;2023-09-18T08:13:37;98670.58;;;23.86;59.00
77235;BME280;66253;50.526;14.974;2023-09-18T08:16:07;98667.93;;;23.84;59.01
77235;BME280;66253;50.526;14.974;2023-09-18T08:18:35;98668.89;;;23.83;59.18
77235;BME280;66253;50.526;14.974;2023-09-18T08:21:03;98666.45;;;23.84;59.22
77235;BME280;66253;50.526;14.974;2023-09-18T08:23:31;98668.85;;;23.89;59.37
77235;BME280;66253;50.526;14.974;2023-09-18T08:26:00;98670.98;;;23.96;59.22
77235;BME280;66253;50.526;14.974;2023-09-18T08:28:28;98665.16;;;24.01;59.37
77235;BME280;66253;50.526;14.974;2023-09-18T08:30:57;98668.09;;;24.09;59.30
77235;BME280;66253;50.526;14.974;2023-09-18T08:33:25;98667.55;;;24.19;58.60
77235;BME280;66253;50.526;14.974;2023-09-18T08:35:53;98661.80;;;24.26;58.37
77235;BME280;66253;50.526;14.974;2023-09-18T08:38:22;98655.89;;;24.35;58.62
77235;BME280;66253;50.526;14.974;2023-09-18T08:40:50;98656.76;;;24.47;58.34
77235;BME280;66253;50.526;14.974;2023-09-18T08:43:19;98659.78;;;24.56;57.84
77235;BME280;66253;50.526;14.974;2023-09-18T08:45:53;98655.12;;;24.63;57.63
77235;BME280;66253;50.526;14.974;2023-09-18T08:48:23;98651.38;;;24.69;57.28
77235;BME280;66253;50.526;14.974;2023-09-18T08:50:52;98648.73;;;24.72;56.94
77235;BME280;66253;50.526;14.974;2023-09-18T08:53:21;98652.20;;;24.77;57.08
77235;BME280;66253;50.526;14.974;2023-09-18T08:55:49;98651.46;;;24.81;57.13
77235;BME280;66253;50.526;14.974;2023-09-18T08:58:18;98649.42;;;24.89;56.94
77235;BME280;66253;50.526;14.974;2023-09-18T09:00:46;98647.66;;;24.98;56.93
77235;BME280;66253;50.526;14.974;2023-09-18T09:03:16;98643.33;;;25.06;55.95
77235;BME280;66253;50.526;14.974;2023-09-18T09:05:45;98635.46;;;25.09;55.89
77235;BME280;66253;50.526;14.974;2023-09-18T09:08:14;98637.41;;;25.14;55.95
77235;BME280;66253;50.526;14.974;2023-09-18T09:10:43;98635.03;;;25.23;56.27
77235;BME280;66253;50.526;14.974;2023-09-18T09:13:13;98627.73;;;25.34;56.11
77235;BME280;66253;50.526;14.974;2023-09-18T09:15:47;98620.00;;;25.42;55.79
77235;BME280;66253;50.526;14.974;2023-09-18T09:18:15;98619.42;;;25.51;55.21
77235;BME280;66253;50.526;14.974;2023-09-18T09:20:54;98618.14;;;25.53;55.15
77235;BME280;66253;50.526;14.974;2023-09-18T09:23:22;98606.46;;;25.60;55.04
77235;BME280;66253;50.526;14.974;2023-09-18T09:25:50;98605.40;;;25.65;54.57
77235;BME280;66253;50.526;14.974;2023-09-18T09:28:30;98602.55;;;25.70;54.75
77235;BME280;66253;50.526;14.974;2023-09-18T09:31:02;98613.23;;;25.79;54.85
77235;BME280;66253;50.526;14.974;2023-09-18T09:33:31;98622.23;;;25.92;54.56
77235;BME280;66253;50.526;14.974;2023-09-18T09:36:00;98617.91;;;26.02;54.00
77235;BME280;66253;50.526;14.974;2023-09-18T09:38:31;98615.80;;;26.11;53.66
77235;BME280;66253;50.526;14.974;2023-09-18T09:41:00;98603.66;;;26.13;53.39
77235;BME280;66253;50.526;14.974;2023-09-18T09:43:32;98597.52;;;26.10;52.69
77235;BME280;66253;50.526;14.974;2023-09-18T09:46:01;98592.73;;;26.06;52.54
77235;BME280;66253;50.526;14.974;2023-09-18T09:48:30;98583.53;;;26.03;52.86
77235;BME280;66253;50.526;14.974;2023-09-18T09:51:00;98577.27;;;26.00;53.31
77235;BME280;66253;50.526;14.974;2023-09-18T09:53:45;98577.16;;;26.04;52.74
77235;BME280;66253;50.526;14.974;2023-09-18T09:56:14;98575.73;;;26.01;52.70
77235;BME280;66253;50.526;14.974;2023-09-18T09:58:41;98583.48;;;25.99;53.05
77235;BME280;66253;50.526;14.974;2023-09-18T10:01:11;98592.10;;;26.00;53.03
77235;BME280;66253;50.526;14.974;2023-09-18T10:03:40;98586.20;;;26.03;53.48
77235;BME280;66253;50.526;14.974;2023-09-18T10:06:10;98574.30;;;26.07;53.59
77235;BME280;66253;50.526;14.974;2023-09-18T10:08:39;98569.36;;;26.07;53.22
77235;BME280;66253;50.526;14.974;2023-09-18T10:11:09;98560.89;;;26.09;53.60
77235;BME280;66253;50.526;14.974;2023-09-18T10:13:42;98563.38;;;26.07;53.06
77235;BME280;66253;50.526;14.974;2023-09-18T10:16:16;98554.09;;;26.08;53.41
77235;BME280;66253;50.526;14.974;2023-09-18T10:18:53;98548.48;;;26.12;53.67
77235;BME280;66253;50.526;14.974;2023-09-18T10:21:28;98541.58;;;26.22;53.45
77235;BME280;66253;50.526;14.974;2023-09-18T10:24:03;98532.84;;;26.30;52.45
77235;BME280;66253;50.526;14.974;2023-09-18T10:26:34;98529.34;;;26.28;52.33
77235;BME280;66253;50.526;14.974;2023-09-18T10:29:04;98522.38;;;26.26;52.53
77235;BME280;66253;50.526;14.974;2023-09-18T10:31:35;98523.55;;;26.24;53.01
77235;BME280;66253;50.526;14.974;2023-09-18T10:34:04;98526.09;;;26.27;52.69
77235;BME280;66253;50.526;14.974;2023-09-18T10:36:35;98521.69;;;26.28;52.73
77235;BME280;66253;50.526;14.974;2023-09-18T10:39:06;98525.77;;;26.30;52.85
77235;BME280;66253;50.526;14.974;2023-09-18T10:41:37;98519.31;;;26.30;52.57
77235;BME280;66253;50.526;14.974;2023-09-18T10:44:04;98518.73;;;26.29;52.50
77235;BME280;66253;50.526;14.974;2023-09-18T10:46:32;98516.97;;;26.29;52.39
77235;BME280;66253;50.526;14.974;2023-09-18T10:49:01;98518.13;;;26.25;51.67
77235;BME280;66253;50.526;14.974;2023-09-18T10:51:30;98515.09;;;26.17;51.99
77235;BME280;66253;50.526;14.974;2023-09-18T10:53:59;98511.77;;;26.15;52.44
77235;BME280;66253;50.526;14.974;2023-09-18T10:56:28;98510.91;;;26.15;52.49
77235;BME280;66253;50.526;14.974;2023-09-18T10:59:01;98512.98;;;26.14;52.35
77235;BME280;66253;50.526;14.974;2023-09-18T11:01:30;98516.54;;;26.08;52.36
77235;BME280;66253;50.526;14.974;2023-09-18T11:04:02;98517.66;;;26.05;53.12
77235;BME280;66253;50.526;14.974;2023-09-18T11:06:31;98516.86;;;26.08;53.09
77235;BME280;66253;50.526;14.974;2023-09-18T11:09:21;98516.61;;;26.09;53.06
77235;BME280;66253;50.526;14.974;2023-09-18T11:11:57;98514.31;;;26.11;52.98
77235;BME280;66253;50.526;14.974;2023-09-18T11:14:43;98510.08;;;26.12;52.82
77235;BME280;66253;50.526;14.974;2023-09-18T11:17:32;98511.56;;;26.14;52.38
77235;BME280;66253;50.526;14.974;2023-09-18T11:20:17;98511.97;;;26.11;52.36
77235;BME280;66253;50.526;14.974;2023-09-18T11:22:49;98513.27;;;26.17;53.28
77235;BME280;66253;50.526;14.974;2023-09-18T11:25:36;98512.40;;;26.28;52.86
77235;BME280;66253;50.526;14.974;2023-09-18T11:28:06;98507.83;;;26.36;52.58
77235;BME280;66253;50.526;14.974;2023-09-18T11:30:35;98502.20;;;26.39;52.80
77235;BME280;66253;50.526;14.974;2023-09-18T11:33:05;98499.41;;;26.42;52.18
77235;BME280;66253;50.526;14.974;2023-09-18T11:35:34;98502.72;;;26.43;52.07
77235;BME280;66253;50.526;14.974;2023-09-18T11:38:07;98500.58;;;26.45;52.23
77235;BME280;66253;50.526;14.974;2023-09-18T11:40:37;98498.45;;;26.51;51.72
77235;BME280;66253;50.526;14.974;2023-09-18T11:43:26;98494.84;;;26.56;51.23
77235;BME280;66253;50.526;14.974;2023-09-18T11:45:56;98489.92;;;26.62;52.22
77235;BME280;66253;50.526;14.974;2023-09-18T11:48:25;98489.88;;;26.76;52.34
77235;BME280;66253;50.526;14.974;2023-09-18T11:50:54;98481.63;;;26.91;52.21
77235;BME280;66253;50.526;14.974;2023-09-18T11:53:24;98475.90;;;27.02;51.26
77235;BME280;66253;50.526;14.974;2023-09-18T11:55:54;98471.58;;;27.12;50.66
77235;BME280;66253;50.526;14.974;2023-09-18T11:58:22;98467.77;;;27.25;50.25
77235;BME280;66253;50.526;14.974;2023-09-18T12:00:51;98465.69;;;27.40;50.13
77235;BME280;66253;50.526;14.974;2023-09-18T12:03:21;98468.96;;;27.53;48.85
77235;BME280;66253;50.526;14.974;2023-09-18T12:05:53;98457.94;;;27.60;48.57
77235;BME280;66253;50.526;14.974;2023-09-18T12:08:23;98456.79;;;27.66;47.86
77235;BME280;66253;50.526;14.974;2023-09-18T12:10:52;98449.97;;;27.68;46.98
77235;BME280;66253;50.526;14.974;2023-09-18T12:13:18;98455.09;;;27.72;47.19
77235;BME280;66253;50.526;14.974;2023-09-18T12:15:47;98448.96;;;27.77;47.37
77235;BME280;66253;50.526;14.974;2023-09-18T12:18:16;98446.25;;;27.86;47.35
77235;BME280;66253;50.526;14.974;2023-09-18T12:20:48;98442.51;;;27.93;47.76
77235;BME280;66253;50.526;14.974;2023-09-18T12:23:17;98440.94;;;28.04;46.99
77235;BME280;66253;50.526;14.974;2023-09-18T12:25:48;98442.30;;;28.12;46.44
77235;BME280;66253;50.526;14.974;2023-09-18T12:28:18;98435.05;;;28.18;46.14
77235;BME280;66253;50.526;14.974;2023-09-18T12:30:46;98431.95;;;28.24;46.08
77235;BME280;66253;50.526;14.974;2023-09-18T12:33:15;98428.08;;;28.30;46.30
77235;BME280;66253;50.526;14.974;2023-09-18T12:35:44;98431.95;;;28.31;45.38
77235;BME280;66253;50.526;14.974;2023-09-18T12:38:17;98427.16;;;28.29;45.74
77235;BME280;66253;50.526;14.974;2023-09-18T12:40:46;98427.86;;;28.31;46.02
77235;BME280;66253;50.526;14.974;2023-09-18T12:43:14;98424.11;;;28.38;46.72
77235;BME280;66253;50.526;14.974;2023-09-18T12:45:43;98415.60;;;28.46;45.77
77235;BME280;66253;50.526;14.974;2023-09-18T12:48:13;98417.35;;;28.46;45.48
77235;BME280;66253;50.526;14.974;2023-09-18T12:50:42;98416.48;;;28.47;45.64
77235;BME280;66253;50.526;14.974;2023-09-18T12:53:11;98411.84;;;28.49;45.45
77235;BME280;66253;50.526;14.974;2023-09-18T12:55:40;98409.98;;;28.52;45.07
77235;BME280;66253;50.526;14.974;2023-09-18T12:58:11;98404.65;;;28.58;44.50
77235;BME280;66253;50.526;14.974;2023-09-18T13:00:46;98399.33;;;28.64;44.97